createdAt,value
2023-05-20T00:02:01.839Z,11.80
2023-05-20T00:04:29.874Z,11.80
2023-05-20T00:06:58.101Z,11.80
2023-05-20T00:09:26.351Z,11.90
2023-05-20T00:11:54.334Z,11.80
2023-05-20T00:14:22.649Z,11.80
2023-05-20T00:16:52.120Z,11.80
2023-05-20T00:19:20.265Z,11.90
2023-05-20T00:21:48.385Z,11.80
2023-05-20T00:24:16.452Z,11.80
2023-05-20T00:26:44.709Z,11.90
2023-05-20T00:29:12.724Z,11.90
2023-05-20T00:31:40.952Z,11.90
2023-05-20T00:34:10.453Z,12.00
2023-05-20T00:36:39.474Z,12.00
2023-05-20T00:39:07.591Z,12.10
2023-05-20T00:41:35.544Z,12.10
2023-05-20T00:44:03.544Z,11.90
2023-05-20T00:46:31.889Z,11.80
2023-05-20T00:49:00.607Z,11.70
2023-05-20T00:51:30.110Z,11.70
2023-05-20T00:53:58.678Z,11.80
2023-05-20T00:56:27.139Z,11.70
2023-05-20T00:58:55.606Z,11.80
2023-05-20T01:01:23.674Z,11.80
2023-05-20T01:03:52.408Z,11.90
2023-05-20T01:06:20.471Z,11.90
2023-05-20T01:08:50.093Z,11.90
2023-05-20T01:11:24.629Z,11.90
2023-05-20T01:13:56.245Z,11.80
2023-05-20T01:16:25.935Z,11.90
2023-05-20T01:18:57.459Z,12.00
2023-05-20T01:21:26.057Z,11.90
2023-05-20T01:23:55.643Z,11.80
2023-05-20T01:26:27.033Z,12.00
2023-05-20T01:28:58.057Z,11.90
2023-05-20T01:31:30.509Z,11.70
2023-05-20T01:33:59.634Z,11.70
2023-05-20T01:36:28.235Z,11.70
2023-05-20T01:38:58.668Z,11.70
2023-05-20T01:41:27.981Z,11.70
2023-05-20T01:43:56.801Z,11.60
2023-05-20T01:46:25.026Z,11.80
2023-05-20T01:48:53.223Z,11.90
2023-05-20T01:51:21.242Z,11.90
2023-05-20T01:53:49.299Z,11.80
2023-05-20T01:56:18.706Z,11.70
2023-05-20T01:58:46.696Z,11.60
2023-05-20T02:01:14.841Z,11.70
2023-05-20T02:03:42.868Z,11.70
2023-05-20T02:06:10.857Z,11.70
2023-05-20T02:08:39.273Z,11.60
2023-05-20T02:11:07.353Z,11.60
2023-05-20T02:13:36.829Z,11.70
2023-05-20T02:16:05.014Z,11.70
2023-05-20T02:18:35.269Z,11.70
2023-05-20T02:21:03.909Z,11.70
2023-05-20T02:23:32.090Z,11.70
2023-05-20T02:26:00.157Z,11.70
2023-05-20T02:28:28.143Z,11.70
2023-05-20T02:30:57.522Z,11.60
2023-05-20T02:33:28.008Z,11.60
2023-05-20T02:35:56.207Z,11.60
2023-05-20T02:38:24.352Z,11.70
2023-05-20T02:40:52.493Z,11.90
2023-05-20T02:43:20.549Z,12.00
2023-05-20T02:45:48.800Z,12.00
2023-05-20T02:48:18.326Z,11.80
2023-05-20T02:50:47.353Z,11.90
2023-05-20T02:53:15.349Z,11.60
2023-05-20T02:55:45.080Z,11.50
2023-05-20T02:58:13.405Z,11.40
2023-05-20T03:00:41.672Z,11.50
2023-05-20T03:03:11.197Z,11.50
2023-05-20T03:05:42.566Z,11.40
2023-05-20T03:08:11.866Z,11.40
2023-05-20T03:10:40.502Z,11.40
2023-05-20T03:13:11.267Z,11.40
2023-05-20T03:15:39.778Z,11.30
2023-05-20T03:18:08.679Z,11.40
2023-05-20T03:20:38.357Z,11.30
2023-05-20T03:23:08.433Z,11.30
2023-05-20T03:25:37.293Z,11.40
2023-05-20T03:28:06.626Z,11.50
2023-05-20T03:30:34.695Z,11.50
2023-05-20T03:33:03.269Z,11.40
2023-05-20T03:35:31.462Z,11.40
2023-05-20T03:38:01.672Z,11.40
2023-05-20T03:40:31.116Z,11.40
2023-05-20T03:42:59.192Z,11.60
2023-05-20T03:45:27.242Z,11.70
2023-05-20T03:47:55.702Z,11.70
2023-05-20T03:50:23.768Z,11.60
2023-05-20T03:52:51.798Z,11.60
2023-05-20T03:55:20.601Z,11.60
2023-05-20T03:57:50.083Z,11.60
2023-05-20T04:00:18.787Z,11.60
2023-05-20T04:02:47.074Z,11.60
2023-05-20T04:05:15.122Z,11.50
2023-05-20T04:07:43.129Z,11.30
2023-05-20T04:10:12.538Z,11.30
2023-05-20T04:12:41.403Z,11.40
2023-05-20T04:15:12.843Z,11.60
2023-05-20T04:17:41.066Z,11.50
2023-05-20T04:20:10.229Z,11.50
2023-05-20T04:22:39.549Z,11.50
2023-05-20T04:25:08.461Z,11.50
2023-05-20T04:27:37.684Z,11.50
2023-05-20T04:30:06.870Z,11.50
2023-05-20T04:32:36.361Z,11.60
2023-05-20T04:35:08.426Z,11.80
2023-05-20T04:37:37.477Z,11.70
2023-05-20T04:40:07.257Z,11.90
2023-05-20T04:42:35.441Z,11.80
2023-05-20T04:45:05.727Z,11.80
2023-05-20T04:47:38.982Z,11.70
2023-05-20T04:50:11.747Z,11.70
2023-05-20T04:52:40.221Z,11.90
2023-05-20T04:55:10.402Z,11.60
2023-05-20T04:57:41.819Z,11.70
2023-05-20T05:00:12.485Z,11.70
2023-05-20T05:02:40.956Z,11.80
2023-05-20T05:05:10.875Z,11.80
2023-05-20T05:07:38.886Z,11.90
2023-05-20T05:10:07.875Z,11.90
2023-05-20T05:12:35.905Z,11.90
2023-05-20T05:15:03.968Z,12.00
2023-05-20T05:17:32.127Z,12.20
2023-05-20T05:20:00.229Z,12.10
2023-05-20T05:22:29.583Z,12.10
2023-05-20T05:24:58.925Z,12.10
2023-05-20T05:27:27.074Z,12.20
2023-05-20T05:29:55.080Z,12.50
2023-05-20T05:32:23.346Z,12.40
2023-05-20T05:34:51.708Z,12.30
2023-05-20T05:37:19.914Z,12.50
2023-05-20T05:39:49.575Z,12.70
2023-05-20T05:42:17.678Z,12.80
2023-05-20T05:44:45.754Z,12.70
2023-05-20T05:47:13.866Z,12.60
2023-05-20T05:49:41.904Z,12.60
2023-05-20T05:52:09.908Z,12.60
2023-05-20T05:54:37.918Z,12.60
2023-05-20T05:57:07.784Z,12.70
2023-05-20T05:59:36.112Z,12.70
2023-05-20T06:02:04.194Z,12.80
2023-05-20T06:04:32.453Z,12.90
2023-05-20T06:07:00.598Z,12.80
2023-05-20T06:09:28.752Z,12.90
2023-05-20T06:11:57.047Z,13.00
2023-05-20T06:14:26.364Z,13.10
2023-05-20T06:16:54.382Z,13.20
2023-05-20T06:19:22.459Z,13.30
2023-05-20T06:21:50.597Z,13.50
2023-05-20T06:24:18.578Z,13.60
2023-05-20T06:26:47.120Z,13.70
2023-05-20T06:29:15.081Z,13.80
2023-05-20T06:31:44.632Z,13.80
2023-05-20T06:34:12.589Z,13.90
2023-05-20T06:36:40.772Z,13.90
2023-05-20T06:39:12.412Z,14.00
2023-05-20T06:41:41.046Z,14.10
2023-05-20T06:44:09.210Z,14.10
2023-05-20T06:46:37.225Z,14.30
2023-05-20T06:49:06.586Z,14.60
2023-05-20T06:51:34.610Z,14.50
2023-05-20T06:54:02.595Z,14.50
2023-05-20T06:56:30.539Z,14.60
2023-05-20T06:58:58.617Z,14.60
2023-05-20T07:01:26.669Z,14.80
2023-05-20T07:03:54.712Z,15.00
2023-05-20T07:06:24.274Z,15.30
2023-05-20T07:08:52.278Z,15.30
2023-05-20T07:11:20.235Z,15.50
2023-05-20T07:13:48.182Z,15.70
2023-05-20T07:16:16.363Z,15.90
2023-05-20T07:18:44.418Z,16.00
2023-05-20T07:21:12.416Z,16.00
2023-05-20T07:23:41.720Z,15.90
2023-05-20T07:26:09.658Z,15.90
2023-05-20T07:28:37.657Z,16.00
2023-05-20T07:31:06.055Z,16.10
2023-05-20T07:33:34.365Z,16.20
2023-05-20T07:36:02.623Z,16.30
2023-05-20T07:38:30.729Z,16.60
2023-05-20T07:41:00.068Z,16.80
2023-05-20T07:43:28.011Z,16.90
2023-05-20T07:45:56.067Z,17.10
2023-05-20T07:48:24.077Z,17.20
2023-05-20T07:50:52.537Z,17.20
2023-05-20T07:53:20.513Z,17.30
2023-05-20T07:55:48.480Z,17.40
2023-05-20T07:58:17.826Z,17.40
2023-05-20T08:00:46.196Z,17.50
2023-05-20T08:03:14.264Z,17.90
2023-05-20T08:05:43.057Z,17.90
2023-05-20T08:08:11.441Z,17.90
2023-05-20T08:10:39.486Z,18.00
2023-05-20T08:13:07.599Z,18.10
2023-05-20T08:15:37.543Z,18.10
2023-05-20T08:18:05.611Z,18.30
2023-05-20T08:20:33.547Z,18.40
2023-05-20T08:23:01.599Z,18.40
2023-05-20T08:25:30.142Z,18.20
2023-05-20T08:27:58.186Z,18.20
2023-05-20T08:30:26.181Z,18.30
2023-05-20T08:32:55.640Z,18.40
2023-05-20T08:35:24.957Z,18.60
2023-05-20T08:37:54.040Z,18.80
2023-05-20T08:40:22.514Z,19.20
2023-05-20T08:42:52.877Z,19.20
2023-05-20T08:45:26.499Z,19.20
2023-05-20T08:47:56.119Z,19.20
2023-05-20T08:50:24.149Z,19.40
2023-05-20T08:52:52.565Z,19.30
2023-05-20T08:55:27.001Z,19.20
2023-05-20T08:57:55.840Z,19.10
2023-05-20T09:00:27.360Z,19.00
2023-05-20T09:02:58.167Z,18.90
2023-05-20T09:05:28.354Z,19.10
2023-05-20T09:08:06.976Z,19.10
2023-05-20T09:10:35.525Z,19.30
2023-05-20T09:13:04.529Z,19.60
2023-05-20T09:15:33.293Z,20.10
2023-05-20T09:18:03.540Z,20.30
2023-05-20T09:20:32.132Z,20.30
2023-05-20T09:23:04.797Z,20.40
2023-05-20T09:25:33.247Z,20.50
2023-05-20T09:28:01.441Z,20.50
2023-05-20T09:30:29.454Z,20.20
2023-05-20T09:32:58.778Z,20.40
2023-05-20T09:35:29.424Z,20.60
2023-05-20T09:37:59.583Z,20.80
2023-05-20T09:40:29.050Z,21.10
2023-05-20T09:43:01.029Z,21.00
2023-05-20T09:45:29.562Z,21.00
2023-05-20T09:47:58.405Z,21.10
2023-05-20T09:50:28.827Z,21.40
2023-05-20T09:52:57.423Z,21.70
2023-05-20T09:55:26.466Z,21.90
2023-05-20T09:57:55.086Z,21.70
2023-05-20T10:00:23.249Z,21.50
2023-05-20T10:02:53.405Z,21.60
2023-05-20T10:05:25.121Z,21.50
2023-05-20T10:08:19.977Z,21.60
2023-05-20T10:10:54.090Z,21.80
2023-05-20T10:13:45.014Z,22.00
2023-05-20T10:16:23.786Z,22.00
2023-05-20T10:19:00.075Z,22.00
2023-05-20T10:21:28.067Z,21.80
2023-05-20T10:24:07.650Z,21.50
2023-05-20T10:26:39.248Z,21.40
2023-05-20T10:29:17.071Z,21.50
2023-05-20T10:31:51.199Z,21.60
2023-05-20T10:34:20.961Z,21.60
2023-05-20T10:36:59.433Z,21.80
2023-05-20T10:39:30.688Z,21.90
2023-05-20T10:42:09.421Z,22.00
2023-05-20T10:44:44.420Z,22.10
2023-05-20T10:49:46.527Z,22.40
2023-05-20T10:52:15.765Z,22.60
2023-05-20T10:54:50.949Z,22.50
2023-05-20T10:57:20.071Z,22.40
2023-05-20T10:59:48.512Z,22.40
2023-05-20T11:02:17.515Z,22.30
2023-05-20T11:04:46.737Z,22.40
2023-05-20T11:07:14.819Z,22.60
2023-05-20T11:09:52.477Z,23.00
2023-05-20T11:12:20.484Z,23.20
2023-05-20T11:14:49.945Z,23.30
2023-05-20T11:17:18.139Z,23.40
2023-05-20T11:19:46.364Z,23.30
2023-05-20T11:22:14.310Z,22.90
2023-05-20T11:24:42.246Z,22.70
2023-05-20T11:27:11.558Z,22.60
2023-05-20T11:29:40.820Z,22.60
2023-05-20T11:32:09.908Z,22.50
2023-05-20T11:34:39.014Z,22.50
2023-05-20T11:37:08.760Z,22.40
2023-05-20T11:39:36.810Z,22.30
2023-05-20T11:42:05.977Z,22.30
2023-05-20T11:44:35.328Z,22.40
2023-05-20T11:47:04.267Z,22.80
2023-05-20T11:49:40.241Z,23.00
2023-05-20T11:52:12.102Z,23.40
2023-05-20T11:54:40.046Z,23.50
2023-05-20T11:57:08.120Z,23.80
2023-05-20T11:59:37.628Z,24.20
2023-05-20T12:02:05.625Z,24.40
2023-05-20T12:04:33.557Z,24.50
2023-05-20T12:07:01.961Z,24.60
2023-05-20T12:09:29.915Z,24.70
2023-05-20T12:11:57.885Z,24.40
2023-05-20T12:14:25.965Z,24.40
2023-05-20T12:16:55.270Z,24.50
2023-05-20T12:19:23.258Z,24.50
2023-05-20T12:21:52.723Z,24.30
2023-05-20T12:24:21.267Z,24.20
2023-05-20T12:26:49.389Z,24.00
2023-05-20T12:29:17.355Z,23.70
2023-05-20T12:31:45.301Z,23.60
2023-05-20T12:34:14.665Z,23.60
2023-05-20T12:36:42.644Z,23.70
2023-05-20T12:39:11.082Z,23.80
2023-05-20T12:41:39.130Z,24.00
2023-05-20T12:44:07.197Z,23.70
2023-05-20T12:46:35.785Z,23.60
2023-05-20T12:49:03.979Z,23.70
2023-05-20T12:51:33.297Z,23.70
2023-05-20T12:54:01.241Z,23.90
2023-05-20T12:56:29.211Z,24.00
2023-05-20T12:58:58.001Z,24.20
2023-05-20T13:01:26.102Z,24.40
2023-05-20T13:03:55.402Z,24.70
2023-05-20T13:06:23.443Z,24.90
2023-05-20T13:08:53.126Z,25.00
2023-05-20T13:11:21.852Z,25.20
2023-05-20T13:13:49.837Z,25.10
2023-05-20T13:16:18.256Z,25.00
2023-05-20T13:18:46.528Z,24.80
2023-05-20T13:21:14.539Z,24.30
2023-05-20T13:23:43.128Z,24.00
2023-05-20T13:26:12.554Z,24.00
2023-05-20T13:28:40.480Z,23.90
2023-05-20T13:31:08.484Z,23.90
2023-05-20T13:33:36.767Z,23.90
2023-05-20T13:36:05.223Z,24.00
2023-05-20T13:38:34.490Z,24.20
2023-05-20T13:41:03.204Z,24.30
2023-05-20T13:43:33.239Z,24.20
2023-05-20T13:46:01.320Z,24.10
2023-05-20T13:48:29.561Z,24.00
2023-05-20T13:50:57.489Z,23.90
2023-05-20T13:53:25.471Z,23.90
2023-05-20T13:55:53.817Z,24.10
2023-05-20T13:58:21.775Z,24.20
2023-05-20T14:00:51.117Z,24.40
2023-05-20T14:03:19.753Z,24.60
2023-05-20T14:05:47.873Z,24.60
2023-05-20T14:08:15.881Z,24.60
2023-05-20T14:10:43.850Z,24.50
2023-05-20T14:13:11.820Z,24.40
2023-05-20T14:15:40.071Z,24.40
2023-05-20T14:18:09.548Z,24.40
2023-05-20T14:20:37.681Z,24.30
2023-05-20T14:23:05.779Z,24.30
2023-05-20T14:25:33.861Z,24.10
2023-05-20T14:28:01.858Z,24.00
2023-05-20T14:30:29.962Z,24.00
2023-05-20T14:32:57.939Z,23.80
2023-05-20T14:35:27.482Z,23.70
2023-05-20T14:37:55.616Z,23.70
2023-05-20T14:40:23.798Z,23.60
2023-05-20T14:42:51.797Z,23.50
2023-05-20T14:45:21.052Z,23.40
2023-05-20T14:47:49.074Z,23.30
2023-05-20T14:50:17.077Z,23.20
2023-05-20T14:52:46.583Z,23.20
2023-05-20T14:55:14.574Z,23.30
2023-05-20T14:57:42.564Z,23.30
2023-05-20T15:00:12.465Z,23.30
2023-05-20T15:02:40.635Z,23.30
2023-05-20T15:05:11.884Z,23.50
2023-05-20T15:07:39.900Z,23.60
2023-05-20T15:10:09.914Z,23.60
2023-05-20T15:12:37.891Z,23.50
2023-05-20T15:15:06.792Z,23.50
2023-05-20T15:17:34.799Z,23.30
2023-05-20T15:20:02.958Z,23.40
2023-05-20T15:22:30.967Z,23.50
2023-05-20T15:24:59.119Z,23.70
2023-05-20T15:27:28.626Z,23.90
2023-05-20T15:29:56.566Z,23.90
2023-05-20T15:32:24.619Z,23.80
2023-05-20T15:34:52.672Z,23.90
2023-05-20T15:37:21.478Z,23.90
2023-05-20T15:39:49.462Z,23.90
2023-05-20T15:42:18.358Z,23.90
2023-05-20T15:44:47.987Z,23.90
2023-05-20T15:47:15.974Z,23.90
2023-05-20T15:49:43.980Z,23.90
2023-05-20T15:52:12.060Z,23.80
2023-05-20T15:54:40.067Z,23.80
2023-05-20T15:57:08.069Z,23.80
2023-05-20T15:59:36.029Z,23.60
2023-05-20T16:02:06.159Z,23.60
2023-05-20T16:04:34.254Z,23.50
2023-05-20T16:07:02.310Z,23.40
2023-05-20T16:09:30.291Z,23.40
2023-05-20T16:11:58.250Z,23.40
2023-05-20T16:14:26.162Z,23.40
2023-05-20T16:16:54.082Z,23.40
2023-05-20T16:19:23.442Z,23.30
2023-05-20T16:21:51.474Z,23.40
2023-05-20T16:24:19.425Z,23.50
2023-05-20T16:26:47.388Z,23.60
2023-05-20T16:29:16.579Z,23.60
2023-05-20T16:31:47.016Z,23.60
2023-05-20T16:34:16.350Z,23.70
2023-05-20T16:36:46.270Z,23.70
2023-05-20T16:39:14.540Z,23.60
2023-05-20T16:41:42.661Z,23.50
2023-05-20T16:44:11.140Z,23.50
2023-05-20T16:46:39.100Z,23.50
2023-05-20T16:49:07.246Z,23.40
2023-05-20T16:51:35.781Z,23.30
2023-05-20T16:54:05.330Z,23.30
2023-05-20T16:56:35.325Z,23.30
2023-05-20T16:59:03.546Z,23.30
2023-05-20T17:01:31.880Z,23.30
2023-05-20T17:04:00.124Z,23.20
2023-05-20T17:06:28.105Z,23.10
2023-05-20T17:08:56.616Z,23.10
2023-05-20T17:11:26.027Z,23.10
2023-05-20T17:13:54.033Z,23.10
2023-05-20T17:16:22.148Z,23.10
2023-05-20T17:18:50.144Z,23.10
2023-05-20T17:21:20.389Z,23.10
2023-05-20T17:23:48.644Z,23.10
2023-05-20T17:26:17.095Z,23.10
2023-05-20T17:28:46.552Z,23.10
2023-05-20T17:31:15.111Z,23.10
2023-05-20T17:33:43.133Z,22.90
2023-05-20T17:36:11.264Z,22.90
2023-05-20T17:38:39.229Z,22.90
2023-05-20T17:41:07.183Z,22.80
2023-05-20T17:43:35.159Z,22.70
2023-05-20T17:46:04.634Z,22.60
2023-05-20T17:48:33.446Z,22.60
2023-05-20T17:51:01.875Z,22.50
2023-05-20T17:53:29.982Z,22.50
2023-05-20T17:55:58.021Z,22.50
2023-05-20T17:58:26.744Z,22.50
2023-05-20T18:00:54.725Z,22.30
2023-05-20T18:03:24.104Z,22.20
2023-05-20T18:05:53.862Z,22.20
2023-05-20T18:08:25.420Z,22.10
2023-05-20T18:10:53.564Z,22.10
2023-05-20T18:13:21.607Z,22.00
2023-05-20T18:15:49.620Z,22.00
2023-05-20T18:18:17.581Z,22.00
2023-05-20T18:20:46.983Z,21.90
2023-05-20T18:23:15.057Z,22.00
2023-05-20T18:25:43.044Z,22.00
2023-05-20T18:28:11.215Z,21.80
2023-05-20T18:30:39.142Z,21.80
2023-05-20T18:33:07.359Z,21.70
2023-05-20T18:35:35.520Z,21.70
2023-05-20T18:38:04.834Z,21.60
2023-05-20T18:40:32.832Z,21.60
2023-05-20T18:43:00.845Z,21.50
2023-05-20T18:45:29.789Z,21.50
2023-05-20T18:47:59.848Z,21.40
2023-05-20T18:50:28.030Z,21.30
2023-05-20T18:52:56.052Z,21.30
2023-05-20T18:55:25.526Z,21.30
2023-05-20T18:57:53.504Z,21.30
2023-05-20T19:00:21.494Z,21.20
2023-05-20T19:02:49.561Z,21.20
2023-05-20T19:05:17.621Z,21.00
2023-05-20T19:07:45.648Z,21.00
2023-05-20T19:10:15.165Z,20.90
2023-05-20T19:12:44.572Z,20.90
2023-05-20T19:15:12.842Z,21.00
2023-05-20T19:17:41.046Z,20.70
2023-05-20T19:20:10.517Z,20.70
2023-05-20T19:22:39.378Z,20.70
2023-05-20T19:25:08.292Z,20.70
2023-05-20T19:27:36.310Z,20.60
2023-05-20T19:30:08.469Z,20.60
2023-05-20T19:32:37.982Z,20.50
2023-05-20T19:35:06.806Z,20.40
2023-05-20T19:37:34.785Z,20.50
2023-05-20T19:40:02.915Z,20.40
2023-05-20T19:42:31.000Z,20.30
2023-05-20T19:44:59.015Z,20.30
2023-05-20T19:47:28.348Z,20.30
2023-05-20T19:49:56.338Z,20.40
2023-05-20T19:52:24.278Z,20.40
2023-05-20T19:54:52.236Z,20.40
2023-05-20T19:57:20.194Z,20.30
2023-05-20T19:59:48.307Z,20.30
2023-05-20T20:02:16.792Z,20.30
2023-05-20T20:04:47.012Z,20.20
2023-05-20T20:07:14.961Z,20.30
2023-05-20T20:09:44.925Z,20.20
2023-05-20T20:12:12.936Z,20.20
2023-05-20T20:14:41.201Z,20.20
2023-05-20T20:17:13.551Z,20.10
2023-05-20T20:19:42.234Z,20.10
2023-05-20T20:22:11.569Z,20.10
2023-05-20T20:24:39.566Z,19.90
2023-05-20T20:27:07.603Z,19.90
2023-05-20T20:29:35.549Z,19.70
2023-05-20T20:32:04.597Z,19.70
2023-05-20T20:34:32.606Z,19.70
2023-05-20T20:37:01.498Z,19.60
2023-05-20T20:39:30.868Z,19.70
2023-05-20T20:42:00.423Z,19.60
2023-05-20T20:44:29.128Z,19.60
2023-05-20T20:46:58.355Z,19.60
2023-05-20T20:49:28.426Z,19.60
2023-05-20T20:51:56.732Z,19.50
2023-05-20T20:54:24.687Z,19.50
2023-05-20T20:56:56.564Z,19.40
2023-05-20T20:59:26.611Z,19.30
2023-05-20T21:01:54.774Z,19.20
2023-05-20T21:04:22.774Z,19.20
2023-05-20T21:06:51.190Z,19.20
2023-05-20T21:09:19.140Z,19.20
2023-05-20T21:11:49.415Z,19.20
2023-05-20T21:14:18.870Z,19.20
2023-05-20T21:16:46.892Z,19.20
2023-05-20T21:19:14.927Z,19.20
2023-05-20T21:21:43.963Z,19.20
2023-05-20T21:24:11.920Z,19.10
2023-05-20T21:26:39.841Z,19.00
2023-05-20T21:29:09.925Z,19.00
2023-05-20T21:31:39.614Z,19.00
2023-05-20T21:34:07.578Z,19.00
2023-05-20T21:36:36.298Z,18.90
2023-05-20T21:39:04.290Z,18.80
2023-05-20T21:41:32.267Z,18.80
2023-05-20T21:44:00.220Z,18.80
2023-05-20T21:46:28.445Z,18.80
2023-05-20T21:48:58.026Z,18.70
2023-05-20T21:51:26.094Z,18.80
2023-05-20T21:53:54.073Z,18.70
2023-05-20T21:56:22.673Z,18.60
2023-05-20T21:58:50.650Z,18.60
2023-05-20T22:01:18.616Z,18.40
2023-05-20T22:03:49.505Z,18.30
2023-05-20T22:06:22.012Z,18.10
2023-05-20T22:08:50.124Z,17.90
2023-05-20T22:11:19.976Z,17.60
2023-05-20T22:13:48.178Z,17.40
2023-05-20T22:16:16.761Z,17.20
2023-05-20T22:18:47.716Z,17.10
2023-05-20T22:21:16.275Z,17.20
2023-05-20T22:23:45.674Z,17.00
2023-05-20T22:26:13.677Z,17.00
2023-05-20T22:28:41.896Z,17.00
2023-05-20T22:31:09.965Z,16.90
2023-05-20T22:33:41.381Z,16.70
2023-05-20T22:36:09.809Z,16.90
2023-05-20T22:38:37.839Z,16.70
2023-05-20T22:41:07.297Z,16.60
2023-05-20T22:43:35.783Z,16.50
2023-05-20T22:46:03.936Z,16.50
2023-05-20T22:48:32.028Z,16.60
2023-05-20T22:51:01.230Z,16.40
2023-05-20T22:53:29.257Z,16.40
2023-05-20T22:55:59.927Z,16.40
2023-05-20T22:58:33.598Z,16.20
2023-05-20T23:01:01.613Z,16.00
2023-05-20T23:03:29.729Z,16.00
2023-05-20T23:05:57.819Z,16.00
2023-05-20T23:08:25.936Z,16.00
2023-05-20T23:10:53.984Z,16.00
2023-05-20T23:13:21.997Z,15.90
2023-05-20T23:15:51.484Z,16.00
2023-05-20T23:18:19.749Z,16.00
2023-05-20T23:20:48.753Z,16.00
2023-05-20T23:23:19.269Z,16.00
2023-05-20T23:25:53.268Z,16.00
2023-05-20T23:28:21.461Z,16.00
2023-05-20T23:30:50.945Z,16.00
2023-05-20T23:33:24.278Z,16.00
2023-05-20T23:35:53.317Z,16.00
2023-05-20T23:38:21.801Z,16.00
2023-05-20T23:40:50.441Z,16.00
2023-05-20T23:43:19.063Z,15.70
2023-05-20T23:45:47.355Z,15.70
2023-05-20T23:48:17.805Z,15.60
2023-05-20T23:50:46.125Z,15.60
2023-05-20T23:53:14.409Z,15.60
2023-05-20T23:55:45.214Z,15.50
2023-05-20T23:58:13.879Z,15.70
